Time;durP1;ratioP1;P1;durP2;ratioP2;P2;SDS_P1;SDS_P2;PMS_P1;PMS_P2;Temp;Humidity;BMP_temperature;BMP_pressure;BME280_temperature;BME280_humidity;BME280_pressure;Samples;Min_cycle;Max_cycle;Signal;HPM_P1;HPM_P2
2023/11/15 00:00:41;;;;;;;2.20;1.40;;;;;;;24.01;40.82;98818.66;4485142;32;34711;-56
2023/11/15 00:03:09;;;;;;;4.72;1.87;;;;;;;24.00;40.77;98813.47;4485125;32;34154;-58
2023/11/15 00:05:37;;;;;;;3.53;2.10;;;;;;;24.00;40.82;98829.81;4485108;32;33970;-52
2023/11/15 00:08:04;;;;;;;6.28;1.98;;;;;;;23.98;40.86;98830.06;4485107;32;33566;-58
2023/11/15 00:10:32;;;;;;;3.87;1.87;;;;;;;23.98;40.90;98824.63;4485098;32;34000;-52
2023/11/15 00:13:00;;;;;;;4.07;1.75;;;;;;;23.98;41.01;98827.34;4485040;32;33566;-59
2023/11/15 00:15:27;;;;;;;5.40;2.00;;;;;;;23.98;41.12;98829.25;4485536;32;33988;-59
2023/11/15 00:18:04;;;;;;;4.30;1.60;;;;;;;23.98;41.10;98827.34;4485116;32;33718;-56
2023/11/15 00:20:35;;;;;;;3.55;1.77;;;;;;;23.98;41.00;98830.06;4484993;32;33948;-55
2023/11/15 00:23:02;;;;;;;3.25;1.80;;;;;;;23.98;41.10;98840.16;4484947;32;33769;-53
2023/11/15 00:25:30;;;;;;;4.07;1.65;;;;;;;23.97;41.22;98863.84;4485064;32;34698;-55
2023/11/15 00:27:58;;;;;;;3.30;1.52;;;;;;;23.97;41.27;98877.47;4485134;32;33984;-55
2023/11/15 00:30:26;;;;;;;2.78;1.70;;;;;;;23.96;41.29;98883.97;4485008;32;33949;-52
2023/11/15 00:32:53;;;;;;;4.80;2.08;;;;;;;23.97;41.27;98882.91;4485036;32;33639;-55
2023/11/15 00:35:22;;;;;;;4.55;1.90;;;;;;;23.97;41.29;98865.72;4484727;32;34430;-56
2023/11/15 00:37:50;;;;;;;3.40;1.67;;;;;;;23.96;41.32;98832.22;4485242;32;34662;-50
2023/11/15 00:40:17;;;;;;;5.07;1.80;;;;;;;23.97;41.31;98842.06;4484964;32;34172;-53
2023/11/15 00:42:45;;;;;;;3.65;1.60;;;;;;;23.95;41.16;98857.81;4483325;32;33504;-52
2023/11/15 00:45:12;;;;;;;3.62;1.98;;;;;;;23.95;41.17;98859.72;4484102;32;33752;-54
2023/11/15 00:47:40;;;;;;;2.78;1.60;;;;;;;23.95;41.18;98857.81;4484400;32;33702;-57
2023/11/15 00:50:07;;;;;;;2.58;1.70;;;;;;;23.95;41.10;98846.91;4484512;32;34352;-55
2023/11/15 00:52:35;;;;;;;3.30;1.83;;;;;;;23.95;41.11;98846.91;4484382;32;33659;-55
2023/11/15 00:55:03;;;;;;;2.80;1.70;;;;;;;23.95;41.18;98824.28;4485059;32;34632;-53
2023/11/15 00:57:31;;;;;;;3.67;1.83;;;;;;;23.94;41.33;98834.37;4484741;32;34592;-58
2023/11/15 00:59:59;;;;;;;5.28;1.80;;;;;;;23.94;41.24;98842.56;4484763;32;34296;-55
2023/11/15 01:02:32;;;;;;;3.72;2.12;;;;;;;23.94;41.15;98839.81;4484794;32;33567;-58
2023/11/15 01:05:00;;;;;;;3.92;1.98;;;;;;;23.94;41.20;98831.66;4484634;32;34214;-56
2023/11/15 01:07:28;;;;;;;4.32;1.75;;;;;;;23.95;41.24;98816.94;4484745;31;33830;-53
2023/11/15 01:09:55;;;;;;;5.07;1.75;;;;;;;23.93;41.33;98828.09;4484520;32;34201;-59
2023/11/15 01:12:23;;;;;;;5.62;2.08;;;;;;;23.92;41.25;98823.75;4484801;32;34433;-59
2023/11/15 01:14:51;;;;;;;2.90;1.83;;;;;;;23.92;41.43;98814.72;4484883;32;33877;-60
2023/11/15 01:17:19;;;;;;;3.60;1.62;;;;;;;23.92;41.34;98822.88;4484507;32;34817;-60
2023/11/15 01:19:49;;;;;;;3.15;1.60;;;;;;;23.91;41.29;98822.06;4484891;32;34171;-59
2023/11/15 01:22:16;;;;;;;4.13;2.03;;;;;;;23.91;41.37;98823.97;4484579;32;33879;-59
2023/11/15 01:24:44;;;;;;;3.25;1.85;;;;;;;23.92;41.37;98825.63;4484403;32;34002;-59
2023/11/15 01:27:12;;;;;;;2.75;1.67;;;;;;;23.91;41.24;98832.16;4484541;32;33732;-59
2023/11/15 01:29:39;;;;;;;4.07;1.62;;;;;;;23.90;41.43;98839.50;4484831;32;34137;-60
2023/11/15 01:32:06;;;;;;;3.20;1.65;;;;;;;23.90;41.45;98850.41;4484719;32;33525;-59
2023/11/15 01:34:34;;;;;;;3.45;1.80;;;;;;;23.89;41.45;98848.75;4484405;32;34765;-57
2023/11/15 01:37:02;;;;;;;3.28;1.50;;;;;;;23.89;41.46;98858.84;4484577;32;34689;-55
2023/11/15 01:39:30;;;;;;;2.80;1.65;;;;;;;23.89;41.40;98856.09;4484343;32;35017;-59
2023/11/15 01:41:58;;;;;;;2.80;1.40;;;;;;;23.89;41.21;98862.38;4484690;32;33540;-58
2023/11/15 01:44:25;;;;;;;3.25;1.50;;;;;;;23.89;41.36;98859.66;4484444;32;33932;-59
2023/11/15 01:46:53;;;;;;;4.68;1.60;;;;;;;23.89;41.37;98861.56;4484305;32;34019;-53
2023/11/15 01:49:21;;;;;;;3.45;1.62;;;;;;;23.89;41.25;98850.66;4482985;32;34815;-59
2023/11/15 01:51:52;;;;;;;2.10;1.50;;;;;;;23.88;41.24;98847.12;4484461;32;34265;-55
2023/11/15 01:54:19;;;;;;;2.87;1.50;;;;;;;23.88;41.28;98835.41;4470019;32;33491;-60
2023/11/15 01:56:47;;;;;;;2.47;1.60;;;;;;;23.89;41.16;98826.13;4484405;32;34364;-59
2023/11/15 01:59:14;;;;;;;2.80;1.50;;;;;;;23.88;41.24;98816.31;4470194;32;34184;-58
2023/11/15 02:01:42;;;;;;;2.87;1.65;;;;;;;23.88;41.40;98829.94;4484287;32;33737;-59
2023/11/15 02:04:09;;;;;;;3.85;1.60;;;;;;;23.87;41.20;98840.00;4483171;32;33762;-59
2023/11/15 02:06:37;;;;;;;3.72;1.62;;;;;;;23.87;41.33;98837.28;4484262;32;34919;-59
2023/11/15 02:09:05;;;;;;;2.80;1.60;;;;;;;23.88;41.37;98821.78;4484192;32;34122;-59
2023/11/15 02:11:33;;;;;;;3.60;1.62;;;;;;;23.88;41.46;98824.50;4482987;32;34471;-58
2023/11/15 02:14:01;;;;;;;4.78;1.50;;;;;;;23.86;41.49;98818.47;4484308;32;33844;-59
2023/11/15 02:16:28;;;;;;;4.05;1.92;;;;;;;23.86;41.48;98816.56;4484132;32;33669;-58
2023/11/15 02:18:56;;;;;;;1.98;1.30;;;;;;;23.85;41.52;98819.53;4484193;32;34862;-58
2023/11/15 02:21:24;;;;;;;3.10;1.50;;;;;;;23.85;41.48;98806.75;4484181;32;33574;-59
2023/11/15 02:23:52;;;;;;;4.10;1.55;;;;;;;23.85;41.24;98808.66;4484331;32;33354;-57
2023/11/15 02:26:19;;;;;;;8.60;1.70;;;;;;;23.85;41.48;98803.19;4482934;32;33329;-58
2023/11/15 02:28:47;;;;;;;3.55;1.60;;;;;;;23.83;41.52;98784.41;4483951;32;34359;-60
2023/11/15 02:31:15;;;;;;;3.87;1.75;;;;;;;23.83;41.54;98783.56;4484333;32;33598;-60
2023/11/15 02:33:44;;;;;;;2.83;1.70;;;;;;;23.83;41.52;98780.84;4484258;32;35186;-58
2023/11/15 02:36:12;;;;;;;3.08;1.52;;;;;;;23.83;41.49;98789.03;4483826;32;33964;-57
2023/11/15 02:38:40;;;;;;;2.75;1.45;;;;;;;23.83;41.56;98778.12;4484067;32;34857;-59
2023/11/15 02:41:08;;;;;;;3.12;1.50;;;;;;;23.81;41.54;98785.72;4483816;32;33897;-55
2023/11/15 02:43:35;;;;;;;4.35;1.58;;;;;;;23.81;41.51;98766.66;4483861;32;33893;-52
2023/11/15 02:46:03;;;;;;;3.45;1.62;;;;;;;23.82;41.54;98781.91;4483921;32;33808;-59
2023/11/15 02:48:32;;;;;;;3.53;1.60;;;;;;;23.81;41.61;98774.81;4483762;32;34048;-59
2023/11/15 02:51:00;;;;;;;3.05;1.50;;;;;;;23.80;41.57;98779.44;4483711;32;33743;-55
2023/11/15 02:53:27;;;;;;;2.87;1.50;;;;;;;23.78;41.55;98784.34;4483763;32;34635;-59
2023/11/15 02:55:55;;;;;;;3.25;1.58;;;;;;;23.79;41.60;98779.72;4483994;32;34009;-59
2023/11/15 02:58:22;;;;;;;3.97;1.85;;;;;;;23.78;41.60;98778.88;4483682;32;33808;-58
2023/11/15 03:00:50;;;;;;;2.60;1.30;;;;;;;23.79;41.56;98776.97;4483785;32;34357;-59
2023/11/15 03:03:18;;;;;;;3.53;1.50;;;;;;;23.79;41.52;98766.09;4483740;32;33806;-58
2023/11/15 03:05:46;;;;;;;3.87;1.40;;;;;;;23.78;41.51;98775.31;4483682;32;33942;-56
2023/11/15 03:08:16;;;;;;;4.60;1.67;;;;;;;23.78;41.76;98772.59;4483742;32;33300;-59
2023/11/15 03:10:44;;;;;;;3.10;1.70;;;;;;;23.77;41.56;98779.94;4483645;32;33426;-60
2023/11/15 03:13:11;;;;;;;2.25;1.30;;;;;;;23.78;41.56;98772.59;4482191;32;34301;-60
2023/11/15 03:15:39;;;;;;;4.32;1.40;;;;;;;23.77;41.65;98749.97;4484282;32;33911;-56
2023/11/15 03:18:09;;;;;;;3.28;1.60;;;;;;;23.76;41.85;98753.78;4485517;32;34829;-58
2023/11/15 03:20:38;;;;;;;3.90;1.50;;;;;;;23.77;41.66;98768.22;4485389;32;34823;-59
2023/11/15 03:23:07;;;;;;;3.03;1.52;;;;;;;23.77;41.78;98760.06;4485549;32;34520;-59
2023/11/15 03:25:34;;;;;;;4.20;1.48;;;;;;;23.77;41.56;98773.66;4485313;32;34907;-59
2023/11/15 03:28:02;;;;;;;3.15;1.70;;;;;;;23.76;41.71;98781.03;4498019;31;33723;-59
2023/11/15 03:30:30;;;;;;;2.90;1.55;;;;;;;23.76;41.55;98780.19;4487154;31;33802;-60
2023/11/15 03:32:57;;;;;;;3.03;1.33;;;;;;;23.76;41.68;98789.19;4501245;31;34630;-59
2023/11/15 03:35:25;;;;;;;2.87;1.50;;;;;;;23.77;41.74;98795.47;4487205;31;33926;-59
2023/11/15 03:37:53;;;;;;;2.80;1.45;;;;;;;23.77;41.76;98793.56;4485254;32;34813;-55
2023/11/15 03:40:20;;;;;;;3.17;1.70;;;;;;;23.77;41.80;98790.84;4485370;32;34367;-56
2023/11/15 03:42:48;;;;;;;2.45;1.30;;;;;;;23.78;41.67;98786.22;4485313;32;33994;-59
2023/11/15 03:45:15;;;;;;;2.60;1.48;;;;;;;23.76;41.65;98783.75;4485499;32;34209;-59
2023/11/15 03:47:43;;;;;;;2.17;1.30;;;;;;;23.76;41.72;98778.31;4483933;32;33444;-60
2023/11/15 03:50:11;;;;;;;3.28;1.50;;;;;;;23.76;41.61;98786.47;4485152;32;33720;-59
2023/11/15 03:52:39;;;;;;;4.62;1.60;;;;;;;23.76;41.64;98786.47;4485554;32;33811;-60
2023/11/15 03:55:06;;;;;;;2.22;1.25;;;;;;;23.76;41.67;98786.47;4485333;32;34006;-57
2023/11/15 03:57:35;;;;;;;2.08;1.30;;;;;;;23.75;41.60;98789.47;4485516;32;34698;-60
2023/11/15 04:00:06;;;;;;;4.37;1.30;;;;;;;23.77;41.75;98790.00;4485259;32;33529;-58
2023/11/15 04:02:39;;;;;;;7.60;2.25;;;;;;;23.75;41.69;98792.19;4485033;32;33883;-59
2023/11/15 04:05:09;;;;;;;3.42;1.50;;;;;;;23.74;41.74;98796.00;4485154;32;34061;-56
2023/11/15 04:07:37;;;;;;;2.47;1.43;;;;;;;23.73;41.84;98791.59;4485186;32;34142;-59
2023/11/15 04:10:09;;;;;;;2.25;1.33;;;;;;;23.74;41.74;98796.81;4483532;32;33522;-59
2023/11/15 04:12:39;;;;;;;2.92;1.30;;;;;;;23.72;41.85;98795.41;4483236;32;33410;-58
2023/11/15 04:15:09;;;;;;;3.00;1.37;;;;;;;23.72;41.83;98798.94;4469611;32;33990;-59
2023/11/15 04:17:37;;;;;;;7.10;1.42;;;;;;;23.72;41.81;98798.94;4475460;32;35469;-57
2023/11/15 04:20:06;;;;;;;3.00;1.62;;;;;;;23.72;41.79;98803.56;4481100;32;33126;-58
2023/11/15 04:22:34;;;;;;;3.20;1.40;;;;;;;23.71;41.75;98796.47;4478666;32;33929;-58
2023/11/15 04:25:02;;;;;;;5.85;1.60;;;;;;;23.72;41.85;98787.22;4484882;32;34093;-59
2023/11/15 04:27:30;;;;;;;2.33;1.30;;;;;;;23.71;41.72;98786.41;4484600;32;34054;-52
2023/11/15 04:29:58;;;;;;;3.22;1.37;;;;;;;23.71;41.64;98774.69;4484941;32;33637;-55
2023/11/15 04:32:25;;;;;;;4.00;1.37;;;;;;;23.71;41.71;98777.41;4484957;32;34067;-57
2023/11/15 04:34:53;;;;;;;2.05;1.15;;;;;;;23.71;41.76;98782.88;4485166;32;34054;-53
2023/11/15 04:37:21;;;;;;;2.45;1.25;;;;;;;23.71;41.72;98771.97;4484990;32;34230;-59
2023/11/15 04:39:48;;;;;;;2.55;1.50;;;;;;;23.70;41.76;98776.59;4485033;32;33371;-56
2023/11/15 04:42:18;;;;;;;2.42;1.40;;;;;;;23.70;41.73;98770.31;4484976;32;33622;-55
2023/11/15 04:44:46;;;;;;;4.78;1.40;;;;;;;23.70;41.78;98776.59;4484791;32;33846;-54
2023/11/15 04:47:14;;;;;;;12.40;1.85;;;;;;;23.70;41.82;98773.87;4484877;32;34213;-53
2023/11/15 04:49:42;;;;;;;3.08;1.42;;;;;;;23.68;41.88;98774.09;4483695;32;33772;-57
2023/11/15 04:52:10;;;;;;;5.50;1.33;;;;;;;23.68;41.78;98779.56;4484718;32;34659;-52
2023/11/15 04:54:38;;;;;;;3.33;1.33;;;;;;;23.68;41.84;98779.56;4484835;32;33919;-56
2023/11/15 04:57:05;;;;;;;4.25;1.52;;;;;;;23.69;41.79;98772.22;4484802;32;34236;-56
2023/11/15 04:59:32;;;;;;;2.22;1.30;;;;;;;23.69;41.84;98772.22;4484673;32;33634;-55
2023/11/15 05:02:00;;;;;;;2.97;1.45;;;;;;;23.68;41.78;98770.56;4484725;32;33956;-57
2023/11/15 05:04:28;;;;;;;3.58;1.30;;;;;;;23.69;41.70;98769.50;4484809;32;34799;-55
2023/11/15 05:06:55;;;;;;;2.75;1.25;;;;;;;23.68;41.83;98776.00;4484353;32;34708;-51
2023/11/15 05:09:24;;;;;;;3.92;1.35;;;;;;;23.67;41.85;98777.09;4483468;32;34337;-54
2023/11/15 05:11:51;;;;;;;2.67;1.37;;;;;;;23.66;41.78;98772.72;4484756;32;34602;-56
2023/11/15 05:14:19;;;;;;;3.03;1.48;;;;;;;23.66;41.84;98773.53;4484352;32;33754;-55
2023/11/15 05:16:46;;;;;;;3.20;1.45;;;;;;;23.66;41.71;98781.72;4484640;32;34758;-56
2023/11/15 05:19:14;;;;;;;3.00;1.30;;;;;;;23.66;41.82;98775.44;4484673;32;33728;-53
2023/11/15 05:21:43;;;;;;;4.07;1.50;;;;;;;23.66;41.75;98772.72;4484649;32;33853;-56
2023/11/15 05:24:11;;;;;;;2.33;1.27;;;;;;;23.65;41.72;98780.06;4484665;32;34716;-56
2023/11/15 05:26:38;;;;;;;2.92;1.35;;;;;;;23.66;41.67;98772.72;4484494;32;34200;-55
2023/11/15 05:29:06;;;;;;;2.42;1.30;;;;;;;23.64;41.65;98773.00;4484824;32;33557;-56
2023/11/15 05:31:33;;;;;;;2.05;1.20;;;;;;;23.65;41.78;98777.34;4484630;32;34131;-58
2023/11/15 05:34:01;;;;;;;2.58;1.30;;;;;;;23.64;41.86;98773.00;4484456;32;34074;-55
2023/11/15 05:36:28;;;;;;;2.47;1.45;;;;;;;23.63;41.78;98771.28;4484608;32;34864;-58
2023/11/15 05:38:56;;;;;;;4.25;1.65;;;;;;;23.64;41.77;98769.41;4484446;32;33701;-56
2023/11/15 05:41:23;;;;;;;2.25;1.35;;;;;;;23.63;41.85;98771.28;4484301;32;33053;-58
2023/11/15 05:43:55;;;;;;;3.15;1.40;;;;;;;23.64;41.78;98770.28;4484478;32;34953;-53
2023/11/15 05:46:23;;;;;;;2.50;1.20;;;;;;;23.61;41.81;98768.00;4484681;32;34204;-55
2023/11/15 05:48:51;;;;;;;4.03;1.48;;;;;;;23.63;41.87;98765.03;4484139;32;33667;-55
2023/11/15 05:51:18;;;;;;;5.25;1.30;;;;;;;23.63;41.79;98773.19;4484727;32;33892;-53
2023/11/15 05:53:46;;;;;;;2.45;1.40;;;;;;;23.62;41.76;98766.09;4484457;32;33987;-56
2023/11/15 05:56:13;;;;;;;2.53;1.20;;;;;;;23.61;41.85;98778.91;4484513;32;34186;-55
2023/11/15 05:58:43;;;;;;;2.33;1.50;;;;;;;23.62;41.85;98790.63;4484414;32;34055;-59
2023/11/15 06:01:12;;;;;;;4.47;1.27;;;;;;;23.62;41.81;98794.16;4484387;32;34023;-57
2023/11/15 06:03:40;;;;;;;2.42;1.25;;;;;;;23.61;41.80;98797.13;4484163;32;34072;-57
2023/11/15 06:06:07;;;;;;;10.00;1.67;;;;;;;23.60;41.74;98790.88;4484156;32;34330;-60
2023/11/15 06:08:35;;;;;;;3.70;1.48;;;;;;;23.60;41.95;98790.88;4483823;32;34840;-58
2023/11/15 06:11:03;;;;;;;6.25;1.40;;;;;;;23.60;41.57;98798.22;4484017;32;33489;-56
2023/11/15 06:13:31;;;;;;;2.37;1.33;;;;;;;23.60;41.66;98790.88;4484365;32;33647;-54
2023/11/15 06:15:58;;;;;;;2.15;1.35;;;;;;;23.60;41.45;98795.50;4484282;32;34225;-54
2023/11/15 06:18:26;;;;;;;5.03;1.40;;;;;;;23.60;41.63;98781.87;4484098;32;33556;-59
2023/11/15 06:20:54;;;;;;;5.85;1.12;;;;;;;23.59;41.75;98783.75;4484234;32;33842;-60
2023/11/15 06:23:21;;;;;;;4.00;1.20;;;;;;;23.60;41.66;98779.16;4484429;32;33952;-59
2023/11/15 06:25:50;;;;;;;3.03;1.25;;;;;;;23.60;41.61;98784.59;4484190;32;34290;-59
2023/11/15 06:28:18;;;;;;;3.72;1.58;;;;;;;23.59;41.66;98781.03;4484165;32;33658;-56
2023/11/15 06:30:47;;;;;;;2.58;1.33;;;;;;;23.60;41.69;98776.44;4484419;32;34039;-55
2023/11/15 06:33:15;;;;;;;3.62;1.33;;;;;;;23.59;41.70;98775.59;4483883;32;33736;-56
2023/11/15 06:35:44;;;;;;;2.97;1.35;;;;;;;23.59;41.74;98778.31;4484291;32;34248;-53
2023/11/15 06:38:13;;;;;;;2.90;1.30;;;;;;;23.58;41.68;98784.84;4484187;32;33465;-51
2023/11/15 06:40:44;;;;;;;2.33;1.25;;;;;;;23.57;41.55;98783.19;4483466;32;34208;-57
2023/11/15 06:43:14;;;;;;;2.53;1.08;;;;;;;23.60;41.58;98784.59;4482717;32;33798;-53
2023/11/15 06:45:42;;;;;;;3.37;1.15;;;;;;;23.59;41.67;98782.94;4483246;32;34305;-55
2023/11/15 06:48:12;;;;;;;3.08;1.35;;;;;;;23.57;41.83;98777.75;4483982;32;34261;-55
2023/11/15 06:50:39;;;;;;;3.55;1.50;;;;;;;23.57;41.70;98772.31;4483191;32;33713;-52
2023/11/15 06:53:07;;;;;;;2.08;1.10;;;;;;;23.58;41.78;98760.34;4483872;32;34149;-58
2023/11/15 06:55:34;;;;;;;8.80;2.37;;;;;;;23.60;41.78;98762.81;4483702;32;34939;-59
2023/11/15 06:58:02;;;;;;;11.82;1.58;;;;;;;23.59;41.78;98766.59;4483772;32;34281;-58
2023/11/15 07:00:33;;;;;;;5.75;1.30;;;;;;;23.57;41.03;98761.41;4483680;32;33905;-59
2023/11/15 07:03:03;;;;;;;2.62;1.25;;;;;;;23.56;40.95;98757.06;4483661;32;35287;-59
2023/11/15 07:05:31;;;;;;;4.15;1.35;;;;;;;23.55;41.02;98766.31;4483520;32;34204;-59
2023/11/15 07:07:59;;;;;;;5.50;1.60;;;;;;;23.53;41.06;98749.38;4483628;32;33936;-62
2023/11/15 07:10:29;;;;;;;4.50;1.30;;;;;;;23.52;41.09;98752.38;4483595;32;34615;-61
2023/11/15 07:13:00;;;;;;;;;;;;;;;23.50;41.09;98749.06;4484186;32;34475;-60
2023/11/15 07:15:28;;;;;;;5.32;1.58;;;;;;;23.59;40.90;98759.25;4483554;32;34105;-59
2023/11/15 07:17:55;;;;;;;5.10;1.60;;;;;;;23.51;40.99;98748.00;4483532;32;33615;-59
2023/11/15 07:20:23;;;;;;;6.10;1.60;;;;;;;23.46;41.10;98742.50;4483256;32;33974;-61
2023/11/15 07:22:50;;;;;;;7.10;1.73;;;;;;;23.45;41.08;98747.09;4483319;32;34981;-59
2023/11/15 07:25:18;;;;;;;4.15;1.37;;;;;;;23.44;41.18;98759.06;4483450;32;34016;-59
2023/11/15 07:27:46;;;;;;;3.72;1.40;;;;;;;23.43;41.25;98751.97;4482911;32;34511;-59
2023/11/15 07:30:14;;;;;;;3.28;1.35;;;;;;;23.41;41.31;98744.06;4483193;32;33910;-59
2023/11/15 07:32:42;;;;;;;2.42;1.15;;;;;;;23.41;41.34;98774.00;4482439;32;33795;-59
2023/11/15 07:35:10;;;;;;;8.85;1.60;;;;;;;23.40;41.34;98747.84;4483001;32;34862;-59
2023/11/15 07:37:38;;;;;;;3.45;1.90;;;;;;;23.42;41.34;98731.28;4483481;32;33509;-59
2023/11/15 07:40:12;;;;;;;5.93;1.60;;;;;;;23.42;41.41;98751.16;4483206;32;33919;-60
2023/11/15 07:42:39;;;;;;;4.93;1.58;;;;;;;23.42;41.43;98751.16;4482932;32;34876;-59
2023/11/15 07:45:08;;;;;;;4.05;1.37;;;;;;;23.45;41.51;98732.66;4483116;32;34056;-59
2023/11/15 07:47:35;;;;;;;6.87;1.95;;;;;;;23.45;41.51;98738.91;4481740;32;33283;-59
2023/11/15 07:50:04;;;;;;;11.12;1.73;;;;;;;23.46;41.68;98748.75;4482730;32;34047;-59
2023/11/15 07:52:32;;;;;;;4.85;1.30;;;;;;;23.47;41.68;98758.56;4483088;32;34745;-59
2023/11/15 07:55:00;;;;;;;3.60;1.42;;;;;;;23.49;41.68;98761.84;4483290;32;34220;-59
2023/11/15 07:57:29;;;;;;;5.30;1.60;;;;;;;23.51;41.62;98762.44;4482817;32;33366;-59
2023/11/15 07:59:56;;;;;;;5.18;1.40;;;;;;;23.53;41.64;98760.25;4481645;32;33914;-60
2023/11/15 08:02:24;;;;;;;6.07;1.50;;;;;;;23.54;41.68;98756.47;4483170;32;33882;-61
2023/11/15 08:04:51;;;;;;;7.30;1.95;;;;;;;23.55;41.72;98755.41;4485163;32;34035;-60
2023/11/15 08:07:21;;;;;;;3.97;1.70;;;;;;;23.55;41.62;98777.19;4484916;31;34293;-61
2023/11/15 08:09:48;;;;;;;5.20;1.80;;;;;;;23.57;41.59;98787.81;4484947;32;33720;-60
2023/11/15 08:12:18;;;;;;;9.32;2.03;;;;;;;23.59;41.69;98796.56;4485119;32;34827;-61
2023/11/15 08:14:45;;;;;;;5.93;1.63;;;;;;;23.58;41.78;98798.44;4485037;32;34825;-61
2023/11/15 08:17:13;;;;;;;11.12;1.85;;;;;;;23.58;41.76;98798.44;4485030;32;33950;-62
2023/11/15 08:19:44;;;;;;;7.57;2.00;;;;;;;23.59;41.75;98802.81;4485136;32;34561;-61
2023/11/15 08:22:16;;;;;;;5.18;1.65;;;;;;;23.59;41.74;98805.53;4485049;32;33905;-61
2023/11/15 08:24:46;;;;;;;3.67;1.12;;;;;;;23.60;41.71;98804.50;4484982;32;33745;-61
2023/11/15 08:27:14;;;;;;;3.08;1.70;;;;;;;23.59;41.68;98807.44;4485003;32;34049;-62
2023/11/15 08:29:42;;;;;;;10.32;1.70;;;;;;;23.61;41.63;98818.94;4484079;32;33768;-61
2023/11/15 08:32:11;;;;;;;2.83;1.40;;;;;;;23.62;41.53;98815.12;4485153;32;33884;-62
2023/11/15 08:34:39;;;;;;;6.05;2.12;;;;;;;23.62;41.49;98821.38;4484928;32;34745;-61
2023/11/15 08:37:08;;;;;;;3.42;1.50;;;;;;;23.62;41.51;98829.56;4485117;32;33355;-61
2023/11/15 08:39:35;;;;;;;5.33;1.67;;;;;;;23.63;41.56;98835.81;4484996;32;34499;-61
2023/11/15 08:42:04;;;;;;;6.97;1.30;;;;;;;23.63;41.45;98824.94;4484916;32;33802;-61
2023/11/15 08:44:33;;;;;;;4.22;1.52;;;;;;;23.64;41.37;98832.06;4484864;32;34154;-61
2023/11/15 08:47:01;;;;;;;2.67;1.33;;;;;;;23.64;41.33;98835.63;4484809;32;33705;-60
2023/11/15 08:49:30;;;;;;;3.60;1.58;;;;;;;23.64;41.35;98842.94;4484770;32;33855;-62
2023/11/15 08:51:58;;;;;;;4.18;1.40;;;;;;;23.64;41.30;98846.53;4484686;32;33701;-59
2023/11/15 08:54:25;;;;;;;4.87;1.27;;;;;;;23.65;41.22;98860.97;4484873;32;34173;-62
2023/11/15 08:56:53;;;;;;;5.10;1.75;;;;;;;23.64;41.29;98854.69;4484899;32;34012;-60
2023/11/15 08:59:24;;;;;;;3.28;1.55;;;;;;;23.65;41.29;98863.69;4484618;32;34662;-62
2023/11/15 09:01:51;;;;;;;3.22;1.50;;;;;;;23.66;41.39;98849.81;4484797;32;34019;-61
2023/11/15 09:04:19;;;;;;;6.47;1.30;;;;;;;23.67;41.36;98867.78;4483213;32;34862;-61
2023/11/15 09:06:46;;;;;;;3.50;1.23;;;;;;;23.67;41.35;98872.41;4484291;31;33622;-61
2023/11/15 09:09:16;;;;;;;4.68;1.25;;;;;;;23.68;41.42;98866.69;4484749;32;33732;-61
2023/11/15 09:11:44;;;;;;;4.53;1.58;;;;;;;23.70;41.28;98871.91;4484691;32;33548;-61
2023/11/15 09:14:14;;;;;;;2.50;1.15;;;;;;;23.70;41.42;98884.72;4484097;32;33481;-62
2023/11/15 09:16:44;;;;;;;3.10;1.50;;;;;;;23.69;41.40;98894.78;4484600;32;33738;-61
2023/11/15 09:19:16;;;;;;;5.90;1.45;;;;;;;23.70;41.47;98907.31;4484673;32;33934;-61
2023/11/15 09:21:44;;;;;;;4.57;1.20;;;;;;;23.71;41.45;98908.16;4483448;32;33829;-59
2023/11/15 09:24:21;;;;;;;3.87;1.40;;;;;;;23.71;41.46;98910.87;4468907;32;34896;-61
2023/11/15 09:26:50;;;;;;;3.37;1.35;;;;;;;23.72;41.49;98909.78;4468751;32;34388;-59
2023/11/15 09:29:19;;;;;;;8.77;1.27;;;;;;;23.72;41.57;98917.97;4472193;32;33876;-61
2023/11/15 09:31:46;;;;;;;3.03;1.10;;;;;;;23.71;41.71;98922.59;4484814;32;34013;-61
2023/11/15 09:34:16;;;;;;;9.00;1.60;;;;;;;23.73;41.80;98931.31;4484415;32;34527;-62
2023/11/15 09:36:45;;;;;;;4.35;1.20;;;;;;;23.74;41.92;98918.56;4484600;32;33657;-59
2023/11/15 09:39:16;;;;;;;8.45;1.92;;;;;;;23.76;42.04;98947.19;4481928;32;34389;-62
2023/11/15 09:41:53;;;;;;;11.35;1.65;;;;;;;23.78;42.17;98938.75;4484325;32;34650;-60
2023/11/15 09:44:23;;;;;;;5.87;1.37;;;;;;;23.79;42.26;98934.97;4484422;32;33756;-59
2023/11/15 09:46:57;;;;;;;5.80;1.67;;;;;;;23.78;42.33;98941.47;4484110;32;34342;-61
2023/11/15 09:49:26;;;;;;;4.50;1.30;;;;;;;23.79;42.34;98933.06;4481584;32;33975;-61
2023/11/15 09:51:54;;;;;;;5.62;1.52;;;;;;;23.81;42.38;98963.59;4484275;32;33968;-59
2023/11/15 09:54:22;;;;;;;5.10;1.70;;;;;;;23.81;42.38;98946.44;4479962;32;34155;-62
2023/11/15 09:56:51;;;;;;;3.65;1.27;;;;;;;23.83;42.38;98968.81;4482125;32;33068;-61
2023/11/15 09:59:19;;;;;;;4.57;1.30;;;;;;;23.84;42.39;98956.84;4482557;32;33657;-61
2023/11/15 10:01:48;;;;;;;5.32;1.30;;;;;;;23.84;42.39;98970.47;4484270;32;33916;-61
2023/11/15 10:04:21;;;;;;;5.87;1.20;;;;;;;23.83;42.33;98960.66;4478764;32;34133;-61
2023/11/15 10:06:50;;;;;;;6.80;1.42;;;;;;;23.84;42.31;98962.28;4482012;32;33707;-60
2023/11/15 10:09:35;;;;;;;3.58;1.00;;;;;;;23.85;42.24;98974.81;4482474;32;34065;-62
2023/11/15 10:12:03;;;;;;;3.20;1.20;;;;;;;23.87;42.15;98975.38;4475890;32;34657;-60
2023/11/15 10:14:32;;;;;;;5.15;1.70;;;;;;;23.85;42.12;98966.66;4483081;32;34759;-61
2023/11/15 10:17:00;;;;;;;3.65;1.15;;;;;;;23.84;42.08;98965.00;4483090;32;33527;-59
2023/11/15 10:19:28;;;;;;;3.42;1.40;;;;;;;23.85;42.00;98975.66;4483341;32;34205;-61
2023/11/15 10:22:04;;;;;;;2.63;1.20;;;;;;;23.84;41.96;98974.00;4483039;32;34816;-59
2023/11/15 10:24:34;;;;;;;5.97;1.33;;;;;;;23.86;41.71;98973.75;4482519;32;34193;-60
2023/11/15 10:27:07;;;;;;;6.30;1.80;;;;;;;23.84;41.73;98979.44;4478184;32;32787;-61
2023/11/15 10:29:48;;;;;;;7.10;1.17;;;;;;;23.84;41.79;98976.72;4482927;31;33171;-62
2023/11/15 10:32:20;;;;;;;3.22;1.23;;;;;;;23.83;41.78;98979.72;4482950;31;34721;-61
2023/11/15 10:34:51;;;;;;;4.07;1.10;;;;;;;23.82;41.78;99003.37;4466243;32;33547;-62
2023/11/15 10:37:19;;;;;;;2.75;1.45;;;;;;;23.81;41.72;99003.63;4479678;32;33609;-60
2023/11/15 10:39:47;;;;;;;4.60;1.20;;;;;;;23.80;41.70;99012.88;4483401;32;33805;-59
2023/11/15 10:42:17;;;;;;;7.55;1.40;;;;;;;23.79;41.65;98994.91;4484012;32;33732;-58
2023/11/15 10:44:49;;;;;;;5.07;1.00;;;;;;;23.78;41.65;99009.56;4483155;32;34843;-59
2023/11/15 10:47:19;;;;;;;1.80;0.93;;;;;;;23.77;41.62;99018.81;4481677;32;34527;-59
2023/11/15 10:49:54;;;;;;;7.10;2.03;;;;;;;23.75;41.59;99010.09;4483711;32;33905;-60
2023/11/15 10:52:22;;;;;;;5.10;1.58;;;;;;;23.75;41.54;99018.25;4469418;32;33859;-59
2023/11/15 10:54:51;;;;;;;4.10;1.23;;;;;;;23.74;41.52;99022.06;4482661;32;33660;-60
2023/11/15 10:57:19;;;;;;;4.60;1.10;;;;;;;23.73;41.46;99029.38;4480672;32;33524;-60
2023/11/15 10:59:48;;;;;;;4.90;1.33;;;;;;;23.73;41.39;99023.09;4482694;32;34564;-61
2023/11/15 11:02:17;;;;;;;2.45;1.10;;;;;;;23.71;41.39;99028.00;4482047;32;33876;-60
2023/11/15 11:04:46;;;;;;;4.00;1.20;;;;;;;23.71;41.18;99025.25;4469495;32;34139;-60
2023/11/15 11:07:18;;;;;;;3.35;1.62;;;;;;;23.68;41.14;99030.12;4468664;32;34902;-60
2023/11/15 11:09:45;;;;;;;3.45;1.40;;;;;;;23.67;41.14;99036.66;4469632;32;34645;-60
2023/11/15 11:12:15;;;;;;;5.22;0.90;;;;;;;23.67;41.30;99035.81;4483677;32;33696;-60
2023/11/15 11:14:45;;;;;;;4.10;1.30;;;;;;;23.66;41.34;99036.91;4463384;32;34202;-60
2023/11/15 11:17:33;;;;;;;3.03;1.15;;;;;;;23.65;41.37;99038.81;4482902;32;34499;-61
2023/11/15 11:20:01;;;;;;;1.85;0.85;;;;;;;23.67;41.16;99046.72;4482727;32;34605;-60
2023/11/15 11:22:30;;;;;;;2.97;1.23;;;;;;;23.63;41.31;99049.06;4481516;32;34055;-61
2023/11/15 11:25:07;;;;;;;3.20;1.08;;;;;;;23.63;41.17;99043.63;4483717;32;34242;-60
2023/11/15 11:27:36;;;;;;;2.92;1.20;;;;;;;23.64;41.12;99036.31;4481425;32;33201;-62
2023/11/15 11:30:11;;;;;;;3.80;1.30;;;;;;;23.63;41.24;99034.63;4476212;32;34650;-60
2023/11/15 11:32:44;;;;;;;2.83;1.20;;;;;;;23.61;41.31;99048.50;4471529;32;33995;-61
2023/11/15 11:35:20;;;;;;;2.90;1.30;;;;;;;23.63;41.33;99053.69;4482951;32;34980;-61
2023/11/15 11:37:53;;;;;;;3.47;0.90;;;;;;;23.61;41.41;99050.41;4483780;32;33665;-60
2023/11/15 11:40:38;;;;;;;6.10;1.37;;;;;;;23.59;41.43;99050.63;4485165;32;34186;-58